Lambourn, United Kingdom
Current Conditions -  °F | °C
As of 9:58 PM on Saturday 25 Oct 2014 (Local Time) from EGVA Reporting Station
Broken Clouds Broken Clouds  
Wind Chill: 53°   Ceiling: 3500
Heat Index: 53°   Visibility: 6mi
Dew Point: 48°   Wind: 8mph
Humidity: 84%   Direction: 230°SW
Pressure: 30.11"   Gusts: NA
Location:  51.51°N, 1.53°W
Report Text: EGVA 252058Z AUTO 23007KT 9999 BKN035 BKN043 12/09 A3011 RMK AO2 SLP200 P0785 60785 T01150088 52011
Loading
Personal Weather Stations






























Interactive Weather Map New forecast layout! Learn more

10-Day Weather Forecast

Advertisements
Track Severe Weather on mobile